sensor_id;sensor_type;location;lat;lon;timestamp;P1;durP1;ratioP1;P2;durP2;ratioP2
29516;SDS011;40993;50.594;8.664;2023-10-09T00:02:45;5.40;;;2.75;;
29516;SDS011;40993;50.594;8.664;2023-10-09T00:05:14;6.07;;;2.65;;
29516;SDS011;40993;50.594;8.664;2023-10-09T00:07:50;6.28;;;2.88;;
29516;SDS011;40993;50.594;8.664;2023-10-09T00:10:22;7.50;;;2.78;;
29516;SDS011;40993;50.594;8.664;2023-10-09T00:12:51;6.55;;;2.95;;
29516;SDS011;40993;50.594;8.664;2023-10-09T00:15:18;6.30;;;3.28;;
29516;SDS011;40993;50.594;8.664;2023-10-09T00:17:47;5.50;;;2.72;;
29516;SDS011;40993;50.594;8.664;2023-10-09T00:20:15;6.22;;;3.00;;
29516;SDS011;40993;50.594;8.664;2023-10-09T00:22:59;7.25;;;2.92;;
29516;SDS011;40993;50.594;8.664;2023-10-09T00:25:26;5.32;;;2.80;;
29516;SDS011;40993;50.594;8.664;2023-10-09T00:27:56;4.93;;;2.95;;
29516;SDS011;40993;50.594;8.664;2023-10-09T00:30:25;5.32;;;2.90;;
29516;SDS011;40993;50.594;8.664;2023-10-09T00:32:56;8.25;;;3.40;;
29516;SDS011;40993;50.594;8.664;2023-10-09T00:35:28;5.93;;;2.78;;
29516;SDS011;40993;50.594;8.664;2023-10-09T00:38:14;6.35;;;3.13;;
29516;SDS011;40993;50.594;8.664;2023-10-09T00:40:49;6.72;;;3.03;;
29516;SDS011;40993;50.594;8.664;2023-10-09T00:43:23;5.40;;;2.80;;
29516;SDS011;40993;50.594;8.664;2023-10-09T00:45:55;8.43;;;3.10;;
29516;SDS011;40993;50.594;8.664;2023-10-09T00:48:26;13.18;;;3.00;;
29516;SDS011;40993;50.594;8.664;2023-10-09T00:51:04;7.38;;;2.72;;
29516;SDS011;40993;50.594;8.664;2023-10-09T00:53:45;5.85;;;3.22;;
29516;SDS011;40993;50.594;8.664;2023-10-09T00:56:17;7.40;;;3.30;;
29516;SDS011;40993;50.594;8.664;2023-10-09T00:58:56;6.22;;;3.05;;
29516;SDS011;40993;50.594;8.664;2023-10-09T01:01:32;5.38;;;3.17;;
29516;SDS011;40993;50.594;8.664;2023-10-09T01:04:03;7.07;;;2.95;;
29516;SDS011;40993;50.594;8.664;2023-10-09T01:06:42;7.10;;;2.90;;
29516;SDS011;40993;50.594;8.664;2023-10-09T01:09:12;8.32;;;2.90;;
29516;SDS011;40993;50.594;8.664;2023-10-09T01:11:43;9.15;;;3.30;;
29516;SDS011;40993;50.594;8.664;2023-10-09T01:14:30;11.15;;;3.85;;
29516;SDS011;40993;50.594;8.664;2023-10-09T01:17:02;6.68;;;2.97;;
29516;SDS011;40993;50.594;8.664;2023-10-09T01:19:34;6.32;;;2.83;;
29516;SDS011;40993;50.594;8.664;2023-10-09T01:22:01;8.75;;;3.20;;
29516;SDS011;40993;50.594;8.664;2023-10-09T01:24:32;5.95;;;3.08;;
29516;SDS011;40993;50.594;8.664;2023-10-09T01:27:05;9.00;;;3.60;;
29516;SDS011;40993;50.594;8.664;2023-10-09T01:29:38;8.73;;;3.47;;
29516;SDS011;40993;50.594;8.664;2023-10-09T01:32:08;8.23;;;3.17;;
29516;SDS011;40993;50.594;8.664;2023-10-09T01:34:43;11.05;;;3.35;;
29516;SDS011;40993;50.594;8.664;2023-10-09T01:37:14;7.43;;;3.40;;
29516;SDS011;40993;50.594;8.664;2023-10-09T01:39:47;8.63;;;3.53;;
29516;SDS011;40993;50.594;8.664;2023-10-09T01:42:15;9.50;;;3.30;;
29516;SDS011;40993;50.594;8.664;2023-10-09T01:44:51;6.28;;;3.30;;
29516;SDS011;40993;50.594;8.664;2023-10-09T01:47:19;9.73;;;3.80;;
29516;SDS011;40993;50.594;8.664;2023-10-09T01:49:48;7.72;;;3.47;;
29516;SDS011;40993;50.594;8.664;2023-10-09T01:52:16;11.20;;;3.80;;
29516;SDS011;40993;50.594;8.664;2023-10-09T01:54:44;8.73;;;3.33;;
29516;SDS011;40993;50.594;8.664;2023-10-09T01:57:16;10.50;;;3.33;;
29516;SDS011;40993;50.594;8.664;2023-10-09T01:59:49;7.45;;;3.45;;
29516;SDS011;40993;50.594;8.664;2023-10-09T02:02:20;10.02;;;4.10;;
29516;SDS011;40993;50.594;8.664;2023-10-09T02:04:58;8.27;;;3.42;;
29516;SDS011;40993;50.594;8.664;2023-10-09T02:07:33;7.97;;;3.80;;
29516;SDS011;40993;50.594;8.664;2023-10-09T02:10:09;6.55;;;3.30;;
29516;SDS011;40993;50.594;8.664;2023-10-09T02:12:47;10.85;;;3.55;;
29516;SDS011;40993;50.594;8.664;2023-10-09T02:15:18;13.02;;;3.92;;
29516;SDS011;40993;50.594;8.664;2023-10-09T02:18:06;6.28;;;3.70;;
29516;SDS011;40993;50.594;8.664;2023-10-09T02:20:45;11.93;;;4.10;;
29516;SDS011;40993;50.594;8.664;2023-10-09T02:23:14;7.97;;;4.05;;
29516;SDS011;40993;50.594;8.664;2023-10-09T02:25:44;9.40;;;4.28;;
29516;SDS011;40993;50.594;8.664;2023-10-09T02:28:13;8.55;;;4.18;;
29516;SDS011;40993;50.594;8.664;2023-10-09T02:30:44;7.22;;;3.92;;
29516;SDS011;40993;50.594;8.664;2023-10-09T02:33:14;10.13;;;4.03;;
29516;SDS011;40993;50.594;8.664;2023-10-09T02:35:54;12.00;;;4.28;;
29516;SDS011;40993;50.594;8.664;2023-10-09T02:38:24;7.18;;;4.22;;
29516;SDS011;40993;50.594;8.664;2023-10-09T02:40:53;11.27;;;4.45;;
29516;SDS011;40993;50.594;8.664;2023-10-09T02:43:37;10.00;;;4.55;;
29516;SDS011;40993;50.594;8.664;2023-10-09T02:46:11;8.65;;;4.40;;
29516;SDS011;40993;50.594;8.664;2023-10-09T02:48:44;8.23;;;4.80;;
29516;SDS011;40993;50.594;8.664;2023-10-09T02:51:17;9.02;;;4.65;;
29516;SDS011;40993;50.594;8.664;2023-10-09T02:54:00;11.73;;;4.95;;
29516;SDS011;40993;50.594;8.664;2023-10-09T02:56:36;9.77;;;5.40;;
29516;SDS011;40993;50.594;8.664;2023-10-09T02:59:09;15.30;;;5.20;;
29516;SDS011;40993;50.594;8.664;2023-10-09T03:01:38;10.35;;;4.57;;
29516;SDS011;40993;50.594;8.664;2023-10-09T03:04:07;12.05;;;4.55;;
29516;SDS011;40993;50.594;8.664;2023-10-09T03:06:37;10.88;;;4.93;;
29516;SDS011;40993;50.594;8.664;2023-10-09T03:09:09;12.07;;;4.70;;
29516;SDS011;40993;50.594;8.664;2023-10-09T03:11:45;12.73;;;5.13;;
29516;SDS011;40993;50.594;8.664;2023-10-09T03:14:14;11.82;;;5.30;;
29516;SDS011;40993;50.594;8.664;2023-10-09T03:16:43;10.30;;;5.45;;
29516;SDS011;40993;50.594;8.664;2023-10-09T03:19:10;9.45;;;5.60;;
29516;SDS011;40993;50.594;8.664;2023-10-09T03:21:39;16.15;;;6.72;;
29516;SDS011;40993;50.594;8.664;2023-10-09T03:24:09;13.63;;;6.80;;
29516;SDS011;40993;50.594;8.664;2023-10-09T03:26:38;12.07;;;5.90;;
29516;SDS011;40993;50.594;8.664;2023-10-09T03:29:06;12.65;;;6.22;;
29516;SDS011;40993;50.594;8.664;2023-10-09T03:31:36;14.43;;;7.35;;
29516;SDS011;40993;50.594;8.664;2023-10-09T03:34:04;13.13;;;7.07;;
29516;SDS011;40993;50.594;8.664;2023-10-09T03:36:32;13.25;;;7.32;;
29516;SDS011;40993;50.594;8.664;2023-10-09T03:39:05;12.65;;;6.80;;
29516;SDS011;40993;50.594;8.664;2023-10-09T03:41:44;18.67;;;7.03;;
29516;SDS011;40993;50.594;8.664;2023-10-09T03:44:14;15.70;;;8.05;;
29516;SDS011;40993;50.594;8.664;2023-10-09T03:46:44;14.07;;;6.85;;
29516;SDS011;40993;50.594;8.664;2023-10-09T03:49:12;13.98;;;6.82;;
29516;SDS011;40993;50.594;8.664;2023-10-09T03:51:42;16.73;;;7.13;;
29516;SDS011;40993;50.594;8.664;2023-10-09T03:54:11;12.07;;;7.03;;
29516;SDS011;40993;50.594;8.664;2023-10-09T03:56:40;14.20;;;6.70;;
29516;SDS011;40993;50.594;8.664;2023-10-09T03:59:08;15.77;;;7.07;;
29516;SDS011;40993;50.594;8.664;2023-10-09T04:01:38;12.98;;;7.38;;
29516;SDS011;40993;50.594;8.664;2023-10-09T04:04:05;17.30;;;7.55;;
29516;SDS011;40993;50.594;8.664;2023-10-09T04:06:37;13.73;;;7.47;;
29516;SDS011;40993;50.594;8.664;2023-10-09T04:09:05;19.42;;;7.53;;
29516;SDS011;40993;50.594;8.664;2023-10-09T04:11:53;12.27;;;7.88;;
29516;SDS011;40993;50.594;8.664;2023-10-09T04:14:39;16.95;;;8.52;;
29516;SDS011;40993;50.594;8.664;2023-10-09T04:17:17;17.10;;;8.48;;
29516;SDS011;40993;50.594;8.664;2023-10-09T04:20:06;16.25;;;8.20;;
29516;SDS011;40993;50.594;8.664;2023-10-09T04:22:57;13.55;;;8.23;;
29516;SDS011;40993;50.594;8.664;2023-10-09T04:28:08;13.85;;;8.18;;
29516;SDS011;40993;50.594;8.664;2023-10-09T04:30:37;15.20;;;7.28;;
29516;SDS011;40993;50.594;8.664;2023-10-09T04:33:13;15.65;;;7.22;;
29516;SDS011;40993;50.594;8.664;2023-10-09T04:35:55;14.10;;;7.20;;
29516;SDS011;40993;50.594;8.664;2023-10-09T04:38:41;13.13;;;6.75;;
29516;SDS011;40993;50.594;8.664;2023-10-09T04:41:21;9.93;;;6.13;;
29516;SDS011;40993;50.594;8.664;2023-10-09T04:43:54;12.15;;;5.70;;
29516;SDS011;40993;50.594;8.664;2023-10-09T04:46:30;11.10;;;5.88;;
29516;SDS011;40993;50.594;8.664;2023-10-09T04:49:11;12.13;;;4.90;;
29516;SDS011;40993;50.594;8.664;2023-10-09T04:51:53;11.43;;;5.05;;
29516;SDS011;40993;50.594;8.664;2023-10-09T04:54:32;12.38;;;5.22;;
29516;SDS011;40993;50.594;8.664;2023-10-09T04:57:05;10.45;;;5.10;;
29516;SDS011;40993;50.594;8.664;2023-10-09T04:59:44;15.65;;;5.40;;
29516;SDS011;40993;50.594;8.664;2023-10-09T05:02:14;12.05;;;5.60;;
29516;SDS011;40993;50.594;8.664;2023-10-09T05:04:47;14.50;;;5.90;;
29516;SDS011;40993;50.594;8.664;2023-10-09T05:07:27;14.25;;;6.40;;
29516;SDS011;40993;50.594;8.664;2023-10-09T05:10:20;8.98;;;4.50;;
29516;SDS011;40993;50.594;8.664;2023-10-09T05:12:51;9.88;;;4.90;;
29516;SDS011;40993;50.594;8.664;2023-10-09T05:15:23;9.05;;;4.72;;
29516;SDS011;40993;50.594;8.664;2023-10-09T05:17:54;13.82;;;5.18;;
29516;SDS011;40993;50.594;8.664;2023-10-09T05:20:24;10.50;;;5.70;;
29516;SDS011;40993;50.594;8.664;2023-10-09T05:23:09;10.98;;;5.53;;
29516;SDS011;40993;50.594;8.664;2023-10-09T05:25:51;10.55;;;5.65;;
29516;SDS011;40993;50.594;8.664;2023-10-09T05:28:21;9.95;;;5.35;;
29516;SDS011;40993;50.594;8.664;2023-10-09T05:31:03;10.20;;;5.65;;
29516;SDS011;40993;50.594;8.664;2023-10-09T05:33:35;11.70;;;5.80;;
29516;SDS011;40993;50.594;8.664;2023-10-09T05:36:05;9.35;;;5.43;;
29516;SDS011;40993;50.594;8.664;2023-10-09T05:38:43;16.05;;;5.93;;
29516;SDS011;40993;50.594;8.664;2023-10-09T05:41:24;9.25;;;5.45;;
29516;SDS011;40993;50.594;8.664;2023-10-09T05:44:09;9.98;;;5.72;;
29516;SDS011;40993;50.594;8.664;2023-10-09T05:46:54;12.27;;;6.50;;
29516;SDS011;40993;50.594;8.664;2023-10-09T05:49:48;10.93;;;6.88;;
29516;SDS011;40993;50.594;8.664;2023-10-09T05:52:23;11.45;;;6.65;;
29516;SDS011;40993;50.594;8.664;2023-10-09T05:55:20;13.52;;;7.68;;
29516;SDS011;40993;50.594;8.664;2023-10-09T05:58:07;13.15;;;8.20;;
29516;SDS011;40993;50.594;8.664;2023-10-09T06:00:49;12.25;;;7.85;;
29516;SDS011;40993;50.594;8.664;2023-10-09T06:03:52;10.85;;;6.10;;
29516;SDS011;40993;50.594;8.664;2023-10-09T06:06:38;14.48;;;7.90;;
29516;SDS011;40993;50.594;8.664;2023-10-09T06:09:12;12.35;;;7.85;;
29516;SDS011;40993;50.594;8.664;2023-10-09T06:12:15;14.30;;;7.53;;
29516;SDS011;40993;50.594;8.664;2023-10-09T06:15:00;13.43;;;7.13;;
29516;SDS011;40993;50.594;8.664;2023-10-09T06:17:45;13.60;;;8.32;;
29516;SDS011;40993;50.594;8.664;2023-10-09T06:20:17;14.88;;;7.80;;
29516;SDS011;40993;50.594;8.664;2023-10-09T06:23:27;14.27;;;8.10;;
29516;SDS011;40993;50.594;8.664;2023-10-09T06:26:23;12.95;;;7.57;;
29516;SDS011;40993;50.594;8.664;2023-10-09T06:28:51;11.88;;;7.60;;
29516;SDS011;40993;50.594;8.664;2023-10-09T06:31:40;14.40;;;8.82;;
29516;SDS011;40993;50.594;8.664;2023-10-09T06:34:26;14.75;;;9.20;;
29516;SDS011;40993;50.594;8.664;2023-10-09T06:37:01;14.70;;;9.07;;
29516;SDS011;40993;50.594;8.664;2023-10-09T06:39:43;17.20;;;9.05;;
29516;SDS011;40993;50.594;8.664;2023-10-09T06:42:47;12.32;;;8.68;;
29516;SDS011;40993;50.594;8.664;2023-10-09T06:45:19;10.05;;;7.30;;
29516;SDS011;40993;50.594;8.664;2023-10-09T06:47:47;15.07;;;8.32;;
29516;SDS011;40993;50.594;8.664;2023-10-09T06:50:22;10.25;;;6.28;;
29516;SDS011;40993;50.594;8.664;2023-10-09T06:53:13;16.63;;;7.00;;
29516;SDS011;40993;50.594;8.664;2023-10-09T06:55:52;14.93;;;6.97;;
29516;SDS011;40993;50.594;8.664;2023-10-09T06:58:33;10.60;;;6.68;;
29516;SDS011;40993;50.594;8.664;2023-10-09T07:01:08;12.60;;;6.50;;
29516;SDS011;40993;50.594;8.664;2023-10-09T07:03:56;14.05;;;7.45;;
29516;SDS011;40993;50.594;8.664;2023-10-09T07:06:26;9.95;;;6.85;;
29516;SDS011;40993;50.594;8.664;2023-10-09T07:09:12;13.30;;;6.97;;
29516;SDS011;40993;50.594;8.664;2023-10-09T07:11:46;15.43;;;7.15;;
29516;SDS011;40993;50.594;8.664;2023-10-09T07:14:26;9.90;;;6.45;;
29516;SDS011;40993;50.594;8.664;2023-10-09T07:17:28;10.68;;;6.47;;
29516;SDS011;40993;50.594;8.664;2023-10-09T07:20:12;8.35;;;6.20;;
29516;SDS011;40993;50.594;8.664;2023-10-09T07:23:02;12.48;;;6.03;;
29516;SDS011;40993;50.594;8.664;2023-10-09T07:25:43;12.45;;;6.95;;
29516;SDS011;40993;50.594;8.664;2023-10-09T07:28:25;9.48;;;5.82;;
29516;SDS011;40993;50.594;8.664;2023-10-09T07:31:16;13.35;;;6.97;;
29516;SDS011;40993;50.594;8.664;2023-10-09T07:33:52;12.85;;;8.00;;
29516;SDS011;40993;50.594;8.664;2023-10-09T07:36:32;11.23;;;6.65;;
29516;SDS011;40993;50.594;8.664;2023-10-09T07:39:04;12.50;;;5.93;;
29516;SDS011;40993;50.594;8.664;2023-10-09T07:41:43;14.30;;;6.15;;
29516;SDS011;40993;50.594;8.664;2023-10-09T07:44:28;9.52;;;5.78;;
29516;SDS011;40993;50.594;8.664;2023-10-09T07:47:04;9.48;;;5.75;;
29516;SDS011;40993;50.594;8.664;2023-10-09T07:49:45;7.68;;;4.70;;
29516;SDS011;40993;50.594;8.664;2023-10-09T07:52:19;8.35;;;4.95;;
29516;SDS011;40993;50.594;8.664;2023-10-09T07:54:48;8.20;;;4.75;;
29516;SDS011;40993;50.594;8.664;2023-10-09T07:57:28;9.07;;;5.40;;
29516;SDS011;40993;50.594;8.664;2023-10-09T08:00:06;10.40;;;5.47;;
29516;SDS011;40993;50.594;8.664;2023-10-09T08:03:01;7.80;;;5.18;;
29516;SDS011;40993;50.594;8.664;2023-10-09T08:05:30;12.63;;;5.80;;
29516;SDS011;40993;50.594;8.664;2023-10-09T08:08:01;8.93;;;4.93;;
29516;SDS011;40993;50.594;8.664;2023-10-09T08:11:07;10.05;;;5.80;;
29516;SDS011;40993;50.594;8.664;2023-10-09T08:13:52;9.13;;;5.78;;
29516;SDS011;40993;50.594;8.664;2023-10-09T08:16:26;10.32;;;5.72;;
29516;SDS011;40993;50.594;8.664;2023-10-09T08:19:03;9.23;;;6.18;;
29516;SDS011;40993;50.594;8.664;2023-10-09T08:21:56;27.92;;;14.05;;
29516;SDS011;40993;50.594;8.664;2023-10-09T08:24:43;22.27;;;12.73;;
29516;SDS011;40993;50.594;8.664;2023-10-09T08:27:18;8.73;;;5.60;;
29516;SDS011;40993;50.594;8.664;2023-10-09T08:30:13;10.35;;;5.20;;
29516;SDS011;40993;50.594;8.664;2023-10-09T08:32:54;9.02;;;5.30;;
29516;SDS011;40993;50.594;8.664;2023-10-09T08:35:32;8.85;;;4.85;;
29516;SDS011;40993;50.594;8.664;2023-10-09T08:38:02;8.57;;;5.35;;
29516;SDS011;40993;50.594;8.664;2023-10-09T08:43:08;11.57;;;5.90;;
29516;SDS011;40993;50.594;8.664;2023-10-09T08:45:37;9.93;;;6.10;;
29516;SDS011;40993;50.594;8.664;2023-10-09T08:48:07;12.35;;;5.82;;
29516;SDS011;40993;50.594;8.664;2023-10-09T08:50:39;12.80;;;6.47;;
29516;SDS011;40993;50.594;8.664;2023-10-09T08:53:08;11.88;;;6.60;;
29516;SDS011;40993;50.594;8.664;2023-10-09T08:55:36;11.05;;;5.63;;
29516;SDS011;40993;50.594;8.664;2023-10-09T08:58:04;11.32;;;6.07;;
29516;SDS011;40993;50.594;8.664;2023-10-09T09:00:45;11.55;;;6.40;;
29516;SDS011;40993;50.594;8.664;2023-10-09T09:03:13;10.90;;;6.40;;
29516;SDS011;40993;50.594;8.664;2023-10-09T09:05:44;9.98;;;6.45;;
29516;SDS011;40993;50.594;8.664;2023-10-09T09:08:23;7.90;;;6.30;;
29516;SDS011;40993;50.594;8.664;2023-10-09T09:10:56;9.30;;;6.53;;
29516;SDS011;40993;50.594;8.664;2023-10-09T09:13:26;10.50;;;7.28;;
29516;SDS011;40993;50.594;8.664;2023-10-09T09:15:57;11.20;;;7.18;;
29516;SDS011;40993;50.594;8.664;2023-10-09T09:18:25;12.45;;;7.20;;
29516;SDS011;40993;50.594;8.664;2023-10-09T09:20:57;13.10;;;7.78;;
29516;SDS011;40993;50.594;8.664;2023-10-09T09:23:26;11.65;;;7.28;;
29516;SDS011;40993;50.594;8.664;2023-10-09T09:25:54;16.80;;;9.02;;
29516;SDS011;40993;50.594;8.664;2023-10-09T09:28:26;13.15;;;8.60;;
29516;SDS011;40993;50.594;8.664;2023-10-09T09:31:06;15.00;;;8.43;;
29516;SDS011;40993;50.594;8.664;2023-10-09T09:33:39;12.35;;;7.88;;
29516;SDS011;40993;50.594;8.664;2023-10-09T09:36:07;14.20;;;8.23;;
29516;SDS011;40993;50.594;8.664;2023-10-09T09:38:38;15.32;;;7.82;;
29516;SDS011;40993;50.594;8.664;2023-10-09T09:41:14;12.88;;;7.60;;
29516;SDS011;40993;50.594;8.664;2023-10-09T09:43:51;15.52;;;7.07;;
29516;SDS011;40993;50.594;8.664;2023-10-09T09:46:20;12.45;;;6.82;;
29516;SDS011;40993;50.594;8.664;2023-10-09T09:48:54;14.68;;;7.50;;
29516;SDS011;40993;50.594;8.664;2023-10-09T09:51:29;11.32;;;7.40;;
29516;SDS011;40993;50.594;8.664;2023-10-09T09:53:58;10.25;;;7.45;;
29516;SDS011;40993;50.594;8.664;2023-10-09T09:56:26;12.05;;;7.28;;
29516;SDS011;40993;50.594;8.664;2023-10-09T09:58:57;13.70;;;8.18;;
29516;SDS011;40993;50.594;8.664;2023-10-09T10:01:29;9.23;;;6.78;;
29516;SDS011;40993;50.594;8.664;2023-10-09T10:04:00;16.53;;;7.90;;
29516;SDS011;40993;50.594;8.664;2023-10-09T10:06:47;10.27;;;7.65;;
29516;SDS011;40993;50.594;8.664;2023-10-09T10:12:06;9.68;;;7.72;;
29516;SDS011;40993;50.594;8.664;2023-10-09T10:17:40;11.93;;;7.32;;
29516;SDS011;40993;50.594;8.664;2023-10-09T10:20:39;13.32;;;7.20;;
29516;SDS011;40993;50.594;8.664;2023-10-09T10:23:40;12.05;;;7.75;;
29516;SDS011;40993;50.594;8.664;2023-10-09T10:26:17;11.35;;;7.32;;
29516;SDS011;40993;50.594;8.664;2023-10-09T10:31:53;12.18;;;8.05;;
29516;SDS011;40993;50.594;8.664;2023-10-09T10:34:23;14.77;;;8.23;;
29516;SDS011;40993;50.594;8.664;2023-10-09T10:36:51;14.18;;;7.97;;
29516;SDS011;40993;50.594;8.664;2023-10-09T10:39:28;13.38;;;7.85;;
29516;SDS011;40993;50.594;8.664;2023-10-09T10:42:11;11.70;;;8.02;;
29516;SDS011;40993;50.594;8.664;2023-10-09T10:44:41;11.82;;;8.43;;
29516;SDS011;40993;50.594;8.664;2023-10-09T10:47:11;16.65;;;8.70;;
29516;SDS011;40993;50.594;8.664;2023-10-09T10:49:58;14.10;;;8.95;;
29516;SDS011;40993;50.594;8.664;2023-10-09T10:52:38;15.55;;;9.15;;
29516;SDS011;40993;50.594;8.664;2023-10-09T10:55:12;14.40;;;9.07;;
29516;SDS011;40993;50.594;8.664;2023-10-09T10:58:15;16.40;;;9.95;;
29516;SDS011;40993;50.594;8.664;2023-10-09T11:00:51;17.02;;;10.68;;
29516;SDS011;40993;50.594;8.664;2023-10-09T11:03:39;21.83;;;13.82;;
29516;SDS011;40993;50.594;8.664;2023-10-09T11:06:25;18.42;;;11.70;;
29516;SDS011;40993;50.594;8.664;2023-10-09T11:09:02;18.85;;;11.38;;
29516;SDS011;40993;50.594;8.664;2023-10-09T11:14:14;17.70;;;10.80;;
29516;SDS011;40993;50.594;8.664;2023-10-09T11:16:43;22.17;;;12.10;;
29516;SDS011;40993;50.594;8.664;2023-10-09T11:19:18;17.13;;;10.13;;
29516;SDS011;40993;50.594;8.664;2023-10-09T11:21:59;17.58;;;10.35;;
29516;SDS011;40993;50.594;8.664;2023-10-09T11:24:41;13.60;;;9.93;;
29516;SDS011;40993;50.594;8.664;2023-10-09T11:27:10;19.17;;;10.95;;
29516;SDS011;40993;50.594;8.664;2023-10-09T11:29:48;16.25;;;9.95;;
29516;SDS011;40993;50.594;8.664;2023-10-09T11:32:31;13.90;;;9.90;;
29516;SDS011;40993;50.594;8.664;2023-10-09T11:35:11;14.13;;;10.05;;
29516;SDS011;40993;50.594;8.664;2023-10-09T11:37:54;14.73;;;9.77;;
29516;SDS011;40993;50.594;8.664;2023-10-09T11:40:28;18.05;;;10.15;;
29516;SDS011;40993;50.594;8.664;2023-10-09T11:43:00;19.77;;;10.98;;
29516;SDS011;40993;50.594;8.664;2023-10-09T11:45:30;17.42;;;11.40;;
29516;SDS011;40993;50.594;8.664;2023-10-09T11:48:15;18.33;;;12.45;;
29516;SDS011;40993;50.594;8.664;2023-10-09T11:50:47;17.83;;;12.57;;
29516;SDS011;40993;50.594;8.664;2023-10-09T11:53:19;15.90;;;12.18;;
29516;SDS011;40993;50.594;8.664;2023-10-09T11:55:59;18.55;;;12.40;;
29516;SDS011;40993;50.594;8.664;2023-10-09T11:58:27;22.17;;;13.07;;
29516;SDS011;40993;50.594;8.664;2023-10-09T12:00:56;22.35;;;14.18;;
29516;SDS011;40993;50.594;8.664;2023-10-09T12:03:25;20.35;;;14.80;;
29516;SDS011;40993;50.594;8.664;2023-10-09T12:05:56;21.42;;;15.00;;
29516;SDS011;40993;50.594;8.664;2023-10-09T12:08:24;18.85;;;13.55;;
29516;SDS011;40993;50.594;8.664;2023-10-09T12:10:54;26.77;;;14.65;;
29516;SDS011;40993;50.594;8.664;2023-10-09T12:13:22;20.92;;;14.00;;
29516;SDS011;40993;50.594;8.664;2023-10-09T12:15:50;21.27;;;13.75;;
29516;SDS011;40993;50.594;8.664;2023-10-09T12:18:20;19.25;;;12.70;;
29516;SDS011;40993;50.594;8.664;2023-10-09T12:20:50;19.45;;;13.52;;
29516;SDS011;40993;50.594;8.664;2023-10-09T12:23:18;20.85;;;13.25;;
29516;SDS011;40993;50.594;8.664;2023-10-09T12:25:47;21.15;;;13.10;;
29516;SDS011;40993;50.594;8.664;2023-10-09T12:28:15;18.05;;;13.18;;
29516;SDS011;40993;50.594;8.664;2023-10-09T12:30:46;19.75;;;12.52;;
29516;SDS011;40993;50.594;8.664;2023-10-09T12:33:16;18.08;;;12.90;;
29516;SDS011;40993;50.594;8.664;2023-10-09T12:35:45;17.80;;;13.30;;
29516;SDS011;40993;50.594;8.664;2023-10-09T12:38:13;20.35;;;12.02;;
29516;SDS011;40993;50.594;8.664;2023-10-09T12:40:45;18.17;;;12.27;;
29516;SDS011;40993;50.594;8.664;2023-10-09T12:43:17;19.80;;;13.27;;
29516;SDS011;40993;50.594;8.664;2023-10-09T12:45:46;20.88;;;13.15;;
29516;SDS011;40993;50.594;8.664;2023-10-09T12:48:13;24.08;;;12.95;;
29516;SDS011;40993;50.594;8.664;2023-10-09T12:50:41;17.40;;;11.45;;
29516;SDS011;40993;50.594;8.664;2023-10-09T12:53:11;16.88;;;11.60;;
29516;SDS011;40993;50.594;8.664;2023-10-09T12:55:44;20.90;;;10.98;;
29516;SDS011;40993;50.594;8.664;2023-10-09T12:58:11;15.57;;;10.50;;
29516;SDS011;40993;50.594;8.664;2023-10-09T13:00:42;15.77;;;10.05;;
29516;SDS011;40993;50.594;8.664;2023-10-09T13:03:16;14.55;;;9.95;;
29516;SDS011;40993;50.594;8.664;2023-10-09T13:05:45;16.45;;;10.75;;
29516;SDS011;40993;50.594;8.664;2023-10-09T13:08:23;16.58;;;10.40;;
29516;SDS011;40993;50.594;8.664;2023-10-09T13:11:01;15.45;;;10.07;;
29516;SDS011;40993;50.594;8.664;2023-10-09T13:13:34;16.48;;;10.40;;
29516;SDS011;40993;50.594;8.664;2023-10-09T13:16:09;19.85;;;10.95;;
29516;SDS011;40993;50.594;8.664;2023-10-09T13:18:49;15.68;;;9.90;;
29516;SDS011;40993;50.594;8.664;2023-10-09T13:21:17;15.60;;;9.32;;
29516;SDS011;40993;50.594;8.664;2023-10-09T13:23:47;14.52;;;8.77;;
29516;SDS011;40993;50.594;8.664;2023-10-09T13:26:16;11.52;;;8.00;;
29516;SDS011;40993;50.594;8.664;2023-10-09T13:28:59;13.93;;;8.50;;
29516;SDS011;40993;50.594;8.664;2023-10-09T13:31:29;14.55;;;8.02;;
29516;SDS011;40993;50.594;8.664;2023-10-09T13:33:58;19.55;;;11.18;;
29516;SDS011;40993;50.594;8.664;2023-10-09T13:36:27;21.48;;;13.18;;
29516;SDS011;40993;50.594;8.664;2023-10-09T13:38:59;17.15;;;9.75;;
29516;SDS011;40993;50.594;8.664;2023-10-09T13:41:46;13.95;;;8.65;;
29516;SDS011;40993;50.594;8.664;2023-10-09T13:44:14;15.48;;;9.00;;
29516;SDS011;40993;50.594;8.664;2023-10-09T13:46:42;11.95;;;9.50;;
29516;SDS011;40993;50.594;8.664;2023-10-09T13:49:10;14.90;;;10.80;;
29516;SDS011;40993;50.594;8.664;2023-10-09T13:51:40;13.95;;;8.88;;
29516;SDS011;40993;50.594;8.664;2023-10-09T13:54:11;17.70;;;11.70;;
29516;SDS011;40993;50.594;8.664;2023-10-09T13:56:46;17.98;;;12.85;;
29516;SDS011;40993;50.594;8.664;2023-10-09T13:59:14;14.55;;;10.90;;
29516;SDS011;40993;50.594;8.664;2023-10-09T14:01:46;11.13;;;7.20;;
29516;SDS011;40993;50.594;8.664;2023-10-09T14:04:15;13.90;;;9.50;;
29516;SDS011;40993;50.594;8.664;2023-10-09T14:06:44;13.48;;;9.85;;
29516;SDS011;40993;50.594;8.664;2023-10-09T14:09:14;19.38;;;9.55;;
29516;SDS011;40993;50.594;8.664;2023-10-09T14:11:57;13.15;;;9.43;;
29516;SDS011;40993;50.594;8.664;2023-10-09T14:14:33;14.25;;;10.30;;
29516;SDS011;40993;50.594;8.664;2023-10-09T14:17:05;13.98;;;9.52;;
29516;SDS011;40993;50.594;8.664;2023-10-09T14:19:38;13.50;;;10.07;;
29516;SDS011;40993;50.594;8.664;2023-10-09T14:22:07;16.20;;;10.25;;
29516;SDS011;40993;50.594;8.664;2023-10-09T14:24:36;15.10;;;10.13;;
29516;SDS011;40993;50.594;8.664;2023-10-09T14:27:04;16.30;;;9.00;;
29516;SDS011;40993;50.594;8.664;2023-10-09T14:29:32;12.75;;;9.40;;
29516;SDS011;40993;50.594;8.664;2023-10-09T14:32:03;15.50;;;9.52;;
29516;SDS011;40993;50.594;8.664;2023-10-09T14:34:32;15.85;;;10.15;;
29516;SDS011;40993;50.594;8.664;2023-10-09T14:37:02;15.00;;;10.27;;
29516;SDS011;40993;50.594;8.664;2023-10-09T14:39:30;15.10;;;10.48;;
29516;SDS011;40993;50.594;8.664;2023-10-09T14:42:04;12.77;;;9.10;;
29516;SDS011;40993;50.594;8.664;2023-10-09T14:44:35;14.85;;;9.43;;
29516;SDS011;40993;50.594;8.664;2023-10-09T14:47:04;12.40;;;8.52;;
29516;SDS011;40993;50.594;8.664;2023-10-09T14:49:33;12.75;;;8.77;;
29516;SDS011;40993;50.594;8.664;2023-10-09T14:52:03;10.57;;;8.32;;
29516;SDS011;40993;50.594;8.664;2023-10-09T14:54:34;14.15;;;9.02;;
29516;SDS011;40993;50.594;8.664;2023-10-09T14:57:01;13.07;;;8.35;;
29516;SDS011;40993;50.594;8.664;2023-10-09T14:59:33;11.82;;;8.27;;
29516;SDS011;40993;50.594;8.664;2023-10-09T15:02:01;14.30;;;8.60;;
29516;SDS011;40993;50.594;8.664;2023-10-09T15:04:28;13.27;;;9.13;;
29516;SDS011;40993;50.594;8.664;2023-10-09T15:06:55;17.83;;;9.57;;
29516;SDS011;40993;50.594;8.664;2023-10-09T15:09:23;13.40;;;8.77;;
29516;SDS011;40993;50.594;8.664;2023-10-09T15:11:54;12.77;;;8.85;;
29516;SDS011;40993;50.594;8.664;2023-10-09T15:14:22;14.73;;;8.77;;
29516;SDS011;40993;50.594;8.664;2023-10-09T15:16:51;13.63;;;9.38;;
29516;SDS011;40993;50.594;8.664;2023-10-09T15:19:18;12.88;;;9.00;;
29516;SDS011;40993;50.594;8.664;2023-10-09T15:21:46;15.63;;;10.23;;
29516;SDS011;40993;50.594;8.664;2023-10-09T15:24:14;13.63;;;10.30;;
29516;SDS011;40993;50.594;8.664;2023-10-09T15:26:45;31.42;;;17.00;;
29516;SDS011;40993;50.594;8.664;2023-10-09T15:29:18;28.20;;;18.55;;
29516;SDS011;40993;50.594;8.664;2023-10-09T15:31:51;16.13;;;11.18;;
29516;SDS011;40993;50.594;8.664;2023-10-09T15:34:18;21.02;;;13.68;;
29516;SDS011;40993;50.594;8.664;2023-10-09T15:36:47;18.90;;;12.60;;
29516;SDS011;40993;50.594;8.664;2023-10-09T15:39:15;23.23;;;15.07;;